Time;durP1;ratioP1;P1;durP2;ratioP2;P2;SDS_P1;SDS_P2;PMS_P1;PMS_P2;Temp;Humidity;BMP_temperature;BMP_pressure;BME280_temperature;BME280_humidity;BME280_pressure;Samples;Min_cycle;Max_cycle;Signal;HPM_P1;HPM_P2
2022/08/25 00:01:15;;;;;;;4.22;2.88;;;24.90;66.50;;;;;;5093656;28;20047;-62
2022/08/25 00:03:40;;;;;;;5.00;3.17;;;24.90;66.40;;;;;;5092545;28;20491;-62
2022/08/25 00:06:06;;;;;;;4.97;3.30;;;24.90;66.40;;;;;;5092805;28;20043;-63
2022/08/25 00:08:33;;;;;;;5.35;3.10;;;24.90;66.30;;;;;;5093555;28;20527;-62
2022/08/25 00:11:00;;;;;;;6.28;3.30;;;24.90;66.20;;;;;;5093709;28;20046;-62
2022/08/25 00:13:27;;;;;;;4.85;2.97;;;24.80;66.10;;;;;;5092705;28;20095;-62
2022/08/25 00:15:53;;;;;;;4.20;3.08;;;24.80;66.00;;;;;;5093427;28;20050;-63
2022/08/25 00:18:18;;;;;;;4.40;2.95;;;24.80;65.90;;;;;;5092678;28;20048;-62
2022/08/25 00:20:44;;;;;;;4.75;3.33;;;24.80;65.80;;;;;;5093279;28;20047;-63
2022/08/25 00:23:10;;;;;;;4.85;2.95;;;24.80;65.80;;;;;;5093197;28;20127;-63
2022/08/25 00:25:35;;;;;;;3.65;3.08;;;24.80;65.70;;;;;;5092219;28;20055;-63
2022/08/25 00:28:01;;;;;;;4.63;3.20;;;24.80;65.50;;;;;;5093503;28;20036;-61
2022/08/25 00:30:26;;;;;;;5.25;3.10;;;24.80;65.50;;;;;;5092832;28;20051;-61
2022/08/25 00:32:52;;;;;;;5.10;2.95;;;24.80;65.40;;;;;;5092109;28;20056;-61
2022/08/25 00:35:18;;;;;;;5.80;3.63;;;24.80;65.30;;;;;;5092797;28;20116;-61
2022/08/25 00:37:43;;;;;;;4.90;2.90;;;24.80;65.20;;;;;;5093179;28;20081;-61
2022/08/25 00:40:10;;;;;;;3.60;3.17;;;24.80;65.10;;;;;;5092404;28;20032;-61
2022/08/25 00:42:36;;;;;;;4.68;2.92;;;24.80;65.00;;;;;;5092703;28;20411;-61
2022/08/25 00:45:03;;;;;;;4.97;2.90;;;24.80;64.90;;;;;;5091841;28;20420;-61
2022/08/25 00:47:30;;;;;;;3.90;3.00;;;24.80;64.80;;;;;;5092014;28;20051;-61
2022/08/25 00:49:57;;;;;;;5.45;3.42;;;24.80;64.70;;;;;;5075431;28;20054;-61
2022/08/25 00:52:26;;;;;;;4.00;2.80;;;24.80;64.60;;;;;;5091406;28;20047;-61
2022/08/25 00:54:56;;;;;;;4.68;2.70;;;24.80;64.50;;;;;;5092252;28;20048;-61
2022/08/25 00:57:30;;;;;;;6.10;3.33;;;24.80;64.40;;;;;;5091189;28;20044;-61
2022/08/25 00:59:56;;;;;;;4.35;2.90;;;24.70;64.20;;;;;;5091682;28;20048;-61
2022/08/25 01:02:22;;;;;;;4.25;2.80;;;24.70;64.20;;;;;;5091859;28;20135;-61
2022/08/25 01:04:48;;;;;;;4.00;2.70;;;24.70;64.10;;;;;;5092968;28;20066;-61
2022/08/25 01:07:13;;;;;;;3.92;2.78;;;24.70;64.00;;;;;;5092733;28;20047;-61
2022/08/25 01:09:39;;;;;;;3.97;2.65;;;24.70;63.90;;;;;;5090798;28;20039;-61
2022/08/25 01:12:05;;;;;;;5.03;3.20;;;24.80;63.90;;;;;;5091275;28;20047;-61
2022/08/25 01:14:30;;;;;;;4.57;2.65;;;24.70;63.80;;;;;;5091857;28;20055;-61
2022/08/25 01:16:57;;;;;;;5.10;2.78;;;24.70;63.70;;;;;;5073811;28;20047;-61
2022/08/25 01:19:23;;;;;;;3.38;2.50;;;24.70;63.60;;;;;;5091971;28;20484;-61
2022/08/25 01:21:49;;;;;;;4.40;2.72;;;24.70;63.50;;;;;;5073396;28;20096;-61
2022/08/25 01:24:39;;;;;;;4.07;2.40;;;24.70;63.40;;;;;;5092200;28;20503;-61
2022/08/25 01:27:04;;;;;;;5.13;2.70;;;24.70;63.40;;;;;;5091311;28;20036;-61
2022/08/25 01:29:30;;;;;;;3.40;2.67;;;24.70;63.40;;;;;;5091268;28;20051;-61
2022/08/25 01:32:05;;;;;;;4.05;2.60;;;24.70;63.30;;;;;;5091806;28;20052;-61
2022/08/25 01:34:33;;;;;;;3.70;2.97;;;24.70;63.20;;;;;;5092340;28;20055;-61
2022/08/25 01:36:59;;;;;;;5.03;3.10;;;24.60;63.00;;;;;;5094605;28;20143;-61
2022/08/25 01:39:25;;;;;;;5.85;3.03;;;24.70;63.10;;;;;;5095093;28;20539;-61
2022/08/25 01:42:03;;;;;;;5.50;3.10;;;24.60;63.10;;;;;;5095049;28;20617;-61
2022/08/25 01:44:29;;;;;;;4.32;2.50;;;24.70;63.00;;;;;;5094036;28;20052;-61
2022/08/25 01:46:55;;;;;;;3.50;2.85;;;24.70;62.90;;;;;;5095002;28;20040;-61
2022/08/25 01:49:20;;;;;;;4.05;2.92;;;24.70;62.80;;;;;;5094880;28;20044;-61
2022/08/25 01:51:50;;;;;;;3.95;2.53;;;24.70;62.80;;;;;;5093095;28;20044;-61
2022/08/25 01:54:15;;;;;;;3.88;2.58;;;24.70;62.70;;;;;;5093145;28;20492;-61
2022/08/25 01:56:41;;;;;;;4.72;2.60;;;24.60;62.60;;;;;;5094870;28;20040;-61
2022/08/25 01:59:06;;;;;;;6.75;2.95;;;24.60;62.50;;;;;;5094032;28;20044;-61
2022/08/25 02:01:32;;;;;;;4.40;2.65;;;24.60;62.50;;;;;;5092817;28;20048;-61
2022/08/25 02:03:58;;;;;;;4.38;2.85;;;24.60;62.50;;;;;;5093415;28;20044;-61
2022/08/25 02:06:31;;;;;;;3.45;2.58;;;24.60;62.40;;;;;;5093773;28;20573;-61
2022/08/25 02:09:04;;;;;;;4.57;2.72;;;24.60;62.40;;;;;;5094411;28;20502;-61
2022/08/25 02:11:29;;;;;;;3.95;2.70;;;24.60;62.30;;;;;;5093904;28;20124;-61
2022/08/25 02:13:55;;;;;;;4.07;2.70;;;24.60;62.30;;;;;;5094697;28;20094;-60
2022/08/25 02:16:27;;;;;;;4.70;2.42;;;24.60;62.20;;;;;;5093842;28;20036;-61
2022/08/25 02:18:53;;;;;;;3.97;2.67;;;24.60;62.20;;;;;;5092663;28;20040;-61
2022/08/25 02:21:18;;;;;;;4.15;2.67;;;24.60;62.20;;;;;;5094365;28;20069;-60
2022/08/25 02:23:44;;;;;;;3.97;2.72;;;24.60;62.10;;;;;;5094685;28;20052;-61
2022/08/25 02:26:09;;;;;;;4.80;2.85;;;24.60;62.10;;;;;;5093604;28;20040;-61
2022/08/25 02:28:36;;;;;;;4.90;2.95;;;24.60;62.00;;;;;;5093778;28;20051;-61
2022/08/25 02:31:03;;;;;;;5.82;2.85;;;24.50;61.90;;;;;;5057535;28;1044843;-61
2022/08/25 02:33:28;;;;;;;3.38;2.30;;;24.50;61.90;;;;;;5094478;28;20055;-61
2022/08/25 02:35:59;;;;;;;4.07;2.75;;;24.60;61.90;;;;;;5095457;28;20047;-61
2022/08/25 02:38:26;;;;;;;4.20;2.60;;;24.50;61.80;;;;;;5094962;28;20453;-61
2022/08/25 02:40:52;;;;;;;4.30;2.60;;;24.50;61.70;;;;;;5093859;28;20044;-61
2022/08/25 02:43:18;;;;;;;5.20;2.67;;;24.50;61.70;;;;;;5095299;28;20075;-61
2022/08/25 02:45:43;;;;;;;4.57;2.90;;;24.50;61.70;;;;;;5094788;28;20142;-61
2022/08/25 02:48:09;;;;;;;3.97;2.50;;;24.50;61.70;;;;;;5094784;28;20047;-61
2022/08/25 02:50:34;;;;;;;5.65;3.20;;;24.50;61.70;;;;;;5095064;28;20040;-61
2022/08/25 02:53:00;;;;;;;4.13;2.72;;;24.50;61.60;;;;;;5095340;28;20050;-61
2022/08/25 02:55:25;;;;;;;4.15;2.40;;;24.50;61.60;;;;;;5094348;28;20130;-61
2022/08/25 02:57:51;;;;;;;3.65;2.80;;;24.50;61.60;;;;;;5095300;28;20138;-62
2022/08/25 03:00:17;;;;;;;3.90;2.60;;;24.50;61.50;;;;;;5093925;28;20131;-61
2022/08/25 03:02:42;;;;;;;5.05;2.60;;;24.50;61.50;;;;;;5095083;28;20127;-61
2022/08/25 03:05:09;;;;;;;4.18;2.50;;;24.50;61.50;;;;;;5094846;28;20039;-61
2022/08/25 03:07:35;;;;;;;4.75;2.60;;;24.50;61.40;;;;;;5093837;28;20502;-61
2022/08/25 03:10:12;;;;;;;4.68;2.88;;;24.50;61.40;;;;;;5095072;28;20044;-61
2022/08/25 03:12:40;;;;;;;4.95;3.10;;;24.50;61.30;;;;;;5094906;28;20066;-61
2022/08/25 03:15:07;;;;;;;4.93;2.55;;;24.40;61.30;;;;;;5094007;28;20055;-61
2022/08/25 03:17:32;;;;;;;4.35;2.50;;;24.50;61.30;;;;;;5094287;28;20040;-62
2022/08/25 03:19:58;;;;;;;7.55;2.90;;;24.40;61.30;;;;;;5094958;28;20101;-61
2022/08/25 03:22:23;;;;;;;4.22;2.63;;;24.50;61.30;;;;;;5093710;28;20048;-63
2022/08/25 03:24:49;;;;;;;5.03;2.95;;;24.40;61.20;;;;;;5094879;28;20090;-64
2022/08/25 03:27:14;;;;;;;5.60;2.85;;;24.50;61.20;;;;;;5094356;28;20044;-61
2022/08/25 03:29:41;;;;;;;4.05;2.30;;;24.40;61.10;;;;;;5093634;28;20052;-61
2022/08/25 03:32:07;;;;;;;4.32;2.45;;;24.40;61.10;;;;;;5094364;28;20071;-61
2022/08/25 03:34:32;;;;;;;4.38;2.40;;;24.40;61.10;;;;;;5093937;28;20036;-61
2022/08/25 03:36:58;;;;;;;4.03;2.55;;;24.40;61.00;;;;;;5093611;28;20147;-61
2022/08/25 03:39:24;;;;;;;5.32;3.15;;;24.40;61.00;;;;;;5094184;28;20036;-61
2022/08/25 03:41:50;;;;;;;4.20;2.50;;;24.40;61.40;;;;;;5094245;28;20054;-62
2022/08/25 03:44:16;;;;;;;4.07;2.50;;;24.40;60.90;;;;;;5093216;28;20043;-61
2022/08/25 03:46:44;;;;;;;3.72;2.58;;;24.40;60.90;;;;;;5094136;28;20489;-61
2022/08/25 03:49:13;;;;;;;4.57;2.92;;;24.40;60.90;;;;;;5094364;28;20054;-62
2022/08/25 03:51:40;;;;;;;3.78;2.42;;;24.40;60.80;;;;;;5093154;28;20124;-61
2022/08/25 03:54:06;;;;;;;4.85;2.60;;;24.40;60.80;;;;;;5094052;28;20044;-61
2022/08/25 03:56:31;;;;;;;5.50;2.60;;;24.40;60.80;;;;;;5092603;28;20059;-61
2022/08/25 03:58:57;;;;;;;4.10;2.50;;;24.40;60.80;;;;;;5092717;28;20048;-61
2022/08/25 04:01:23;;;;;;;5.38;2.58;;;24.40;60.80;;;;;;5091824;28;20067;-61
2022/08/25 04:03:48;;;;;;;3.53;2.40;;;24.40;60.70;;;;;;5092427;28;20075;-61
2022/08/25 04:06:14;;;;;;;5.15;2.72;;;24.30;60.70;;;;;;5092625;28;20127;-61
2022/08/25 04:08:40;;;;;;;4.72;2.70;;;24.40;60.70;;;;;;5093494;28;20054;-61
2022/08/25 04:11:07;;;;;;;4.90;2.67;;;24.40;60.70;;;;;;5092703;28;20095;-61
2022/08/25 04:13:33;;;;;;;3.63;2.63;;;24.30;60.60;;;;;;5093659;28;20048;-61
2022/08/25 04:15:58;;;;;;;4.05;2.95;;;24.40;60.60;;;;;;5093532;28;20379;-61
2022/08/25 04:18:24;;;;;;;4.97;3.17;;;24.30;60.50;;;;;;5092478;28;20046;-61
2022/08/25 04:20:49;;;;;;;5.03;3.10;;;24.40;60.50;;;;;;5093757;28;20096;-61
2022/08/25 04:23:15;;;;;;;4.38;2.60;;;24.30;60.50;;;;;;5093405;28;20040;-61
2022/08/25 04:25:41;;;;;;;4.53;2.83;;;24.30;60.40;;;;;;5092692;28;20115;-61
2022/08/25 04:28:07;;;;;;;4.28;2.83;;;24.30;60.40;;;;;;5093536;28;20551;-61
2022/08/25 04:30:33;;;;;;;5.05;2.88;;;24.30;60.40;;;;;;5092865;28;20054;-61
2022/08/25 04:32:59;;;;;;;3.85;3.08;;;24.30;60.40;;;;;;5092470;28;20396;-61
2022/08/25 04:35:24;;;;;;;6.00;2.92;;;24.30;60.30;;;;;;5125709;27;20052;-61
2022/08/25 04:37:50;;;;;;;4.40;2.80;;;24.30;60.30;;;;;;5093323;28;20123;-61
2022/08/25 04:40:16;;;;;;;4.18;2.92;;;24.30;60.20;;;;;;5092005;28;20044;-62
2022/08/25 04:42:43;;;;;;;4.18;2.70;;;24.30;60.20;;;;;;5092993;28;20064;-61
2022/08/25 04:45:09;;;;;;;5.40;2.90;;;24.30;60.20;;;;;;5092876;28;20399;-61
2022/08/25 04:47:38;;;;;;;4.03;2.85;;;24.30;60.20;;;;;;5092110;28;20040;-61
2022/08/25 04:50:05;;;;;;;5.55;3.03;;;24.30;60.10;;;;;;5090649;28;20044;-61
2022/08/25 04:52:31;;;;;;;4.68;2.88;;;24.30;60.20;;;;;;5092859;28;20048;-61
2022/08/25 04:54:56;;;;;;;6.55;3.03;;;24.30;60.10;;;;;;5092374;28;20044;-61
2022/08/25 04:57:22;;;;;;;6.05;3.10;;;24.30;60.10;;;;;;5092336;28;20044;-61
2022/08/25 04:59:47;;;;;;;4.60;2.80;;;24.30;60.10;;;;;;5091332;28;20097;-61
2022/08/25 05:02:13;;;;;;;4.38;2.33;;;24.30;60.10;;;;;;5092355;28;20372;-61
2022/08/25 05:04:38;;;;;;;4.40;2.70;;;24.30;60.10;;;;;;5092907;28;20048;-61
2022/08/25 05:07:04;;;;;;;7.07;3.45;;;24.30;60.00;;;;;;5091835;28;20492;-61
2022/08/25 05:09:30;;;;;;;6.78;3.50;;;24.30;59.60;;;;;;5092188;28;20135;-61
2022/08/25 05:11:55;;;;;;;6.78;3.58;;;24.20;58.00;;;;;;5092893;28;20044;-61
2022/08/25 05:14:21;;;;;;;9.70;3.85;;;24.00;57.40;;;;;;5091326;28;20118;-61
2022/08/25 05:16:47;;;;;;;5.72;3.35;;;23.80;57.30;;;;;;5092675;28;20051;-61
2022/08/25 05:19:13;;;;;;;6.18;3.55;;;23.70;57.50;;;;;;5090600;28;20039;-61
2022/08/25 05:21:39;;;;;;;7.30;3.90;;;23.60;57.50;;;;;;5091951;28;20070;-61
2022/08/25 05:24:04;;;;;;;6.63;3.42;;;23.50;57.80;;;;;;5092639;28;20068;-63
2022/08/25 05:26:30;;;;;;;6.18;3.58;;;23.40;58.50;;;;;;5092229;28;20380;-61
2022/08/25 05:28:56;;;;;;;5.78;3.33;;;23.30;58.00;;;;;;5091634;28;20483;-60
2022/08/25 05:31:22;;;;;;;6.72;3.35;;;23.20;58.30;;;;;;5091953;28;20052;-60
2022/08/25 05:33:48;;;;;;;6.60;3.25;;;23.20;58.70;;;;;;5092333;28;20582;-61
2022/08/25 05:36:14;;;;;;;5.90;3.78;;;23.10;58.80;;;;;;5091147;28;20123;-62
2022/08/25 05:38:40;;;;;;;8.50;3.88;;;23.10;58.90;;;;;;5091021;28;20040;-59
2022/08/25 05:41:09;;;;;;;8.52;3.78;;;23.10;59.00;;;;;;5092212;28;20055;-61
2022/08/25 05:43:36;;;;;;;7.97;3.63;;;23.00;59.10;;;;;;5089919;28;20397;-60
2022/08/25 05:46:02;;;;;;;9.35;4.10;;;23.00;59.30;;;;;;5092444;28;20070;-60
2022/08/25 05:48:28;;;;;;;8.45;4.18;;;23.00;59.40;;;;;;5092185;28;20083;-60
2022/08/25 05:50:57;;;;;;;5.97;3.38;;;23.00;59.50;;;;;;5091530;28;20063;-60
2022/08/25 05:53:23;;;;;;;6.15;3.63;;;23.00;59.50;;;;;;5091855;28;20051;-60
2022/08/25 05:55:50;;;;;;;6.47;3.92;;;23.00;59.90;;;;;;5092406;28;20044;-60
2022/08/25 05:58:15;;;;;;;6.75;3.83;;;23.00;59.90;;;;;;5090128;28;20044;-61
2022/08/25 06:00:41;;;;;;;7.97;4.40;;;22.90;59.80;;;;;;5092255;28;20059;-61
2022/08/25 06:03:06;;;;;;;8.02;3.75;;;23.00;59.90;;;;;;5091473;28;20115;-61
2022/08/25 06:05:32;;;;;;;8.07;4.00;;;23.00;59.90;;;;;;5092048;28;20436;-62
2022/08/25 06:07:57;;;;;;;9.18;4.10;;;23.00;59.90;;;;;;5092162;28;20568;-62
2022/08/25 06:10:23;;;;;;;6.80;3.58;;;22.90;60.00;;;;;;5090996;28;20047;-62
2022/08/25 06:12:49;;;;;;;7.20;4.40;;;23.00;60.20;;;;;;5092274;28;20060;-62
2022/08/25 06:15:17;;;;;;;6.85;3.50;;;23.00;60.20;;;;;;5091604;28;20040;-62
2022/08/25 06:17:42;;;;;;;8.18;4.07;;;23.00;60.20;;;;;;5091327;28;20044;-62
2022/08/25 06:20:10;;;;;;;8.00;3.47;;;23.00;60.20;;;;;;5090555;28;20040;-61
2022/08/25 06:22:36;;;;;;;6.03;3.35;;;23.00;60.20;;;;;;5095081;28;20091;-61
2022/08/25 06:25:03;;;;;;;6.78;3.53;;;23.00;60.40;;;;;;5094450;28;20051;-62
2022/08/25 06:27:28;;;;;;;8.40;3.65;;;23.00;60.30;;;;;;5095384;28;20076;-62
2022/08/25 06:29:54;;;;;;;8.13;3.90;;;23.00;60.30;;;;;;5095035;28;20090;-62
2022/08/25 06:32:20;;;;;;;5.93;3.55;;;23.00;60.30;;;;;;5093551;28;20215;-61
2022/08/25 06:34:45;;;;;;;6.70;3.30;;;23.00;60.20;;;;;;5095838;28;20135;-67
2022/08/25 06:37:11;;;;;;;6.55;3.53;;;23.00;60.20;;;;;;5095619;28;20040;-61
2022/08/25 06:39:36;;;;;;;7.22;3.58;;;23.00;60.30;;;;;;5094096;28;20430;-61
2022/08/25 06:42:02;;;;;;;8.30;3.30;;;23.10;60.60;;;;;;5095688;28;20036;-61
2022/08/25 06:44:28;;;;;;;9.98;3.80;;;23.10;60.70;;;;;;5094567;28;20043;-61
2022/08/25 06:46:53;;;;;;;8.25;3.40;;;23.10;60.60;;;;;;5093810;28;20044;-62
2022/08/25 06:49:19;;;;;;;7.82;4.07;;;23.10;60.50;;;;;;5094588;28;20129;-63
2022/08/25 06:51:45;;;;;;;7.97;4.03;;;23.10;60.60;;;;;;5091932;28;20036;-63
2022/08/25 06:54:11;;;;;;;7.38;3.90;;;23.10;60.60;;;;;;5094068;28;20036;-62
2022/08/25 06:56:36;;;;;;;7.07;3.53;;;23.10;60.60;;;;;;5094196;28;20177;-62
2022/08/25 06:59:02;;;;;;;7.55;3.58;;;23.20;60.80;;;;;;5094579;28;20052;-62
2022/08/25 07:01:28;;;;;;;7.45;3.97;;;23.20;60.90;;;;;;5093730;28;20036;-63
2022/08/25 07:03:58;;;;;;;7.13;3.55;;;23.20;61.00;;;;;;5094347;28;20047;-62
2022/08/25 07:06:24;;;;;;;7.45;3.53;;;23.20;61.00;;;;;;5093543;28;20040;-63
2022/08/25 07:08:50;;;;;;;7.95;3.90;;;23.20;61.00;;;;;;5094438;28;20048;-63
2022/08/25 07:11:15;;;;;;;8.07;3.80;;;23.20;60.90;;;;;;5094404;28;20368;-63
2022/08/25 07:13:41;;;;;;;7.53;3.97;;;23.30;60.90;;;;;;5093597;28;20510;-62
2022/08/25 07:16:06;;;;;;;6.30;3.75;;;23.30;60.90;;;;;;5094285;28;20140;-63
2022/08/25 07:18:32;;;;;;;7.95;3.65;;;23.30;61.00;;;;;;5094549;28;20040;-63
2022/08/25 07:20:58;;;;;;;9.57;3.58;;;23.30;61.00;;;;;;5093947;28;20036;-62
2022/08/25 07:23:24;;;;;;;7.88;3.90;;;23.40;61.10;;;;;;5093281;28;20047;-62
2022/08/25 07:25:50;;;;;;;6.93;3.65;;;23.40;61.20;;;;;;5094687;28;20044;-62
2022/08/25 07:28:15;;;;;;;5.10;3.47;;;23.40;61.20;;;;;;5093703;28;20131;-63
2022/08/25 07:30:41;;;;;;;5.60;3.75;;;23.40;61.20;;;;;;5094473;28;20036;-63
2022/08/25 07:33:07;;;;;;;7.15;3.70;;;23.40;61.30;;;;;;5092949;28;20529;-62
2022/08/25 07:35:32;;;;;;;9.18;3.70;;;23.50;61.30;;;;;;5093275;28;20048;-63
2022/08/25 07:37:58;;;;;;;7.18;3.80;;;23.50;61.50;;;;;;5094077;28;20047;-63
2022/08/25 07:40:25;;;;;;;7.28;3.53;;;23.50;61.50;;;;;;5094092;28;20036;-63
2022/08/25 07:42:53;;;;;;;8.23;3.50;;;23.60;61.60;;;;;;5093751;28;20048;-63
2022/08/25 07:45:19;;;;;;;7.60;3.90;;;23.60;61.60;;;;;;5093806;28;20520;-63
2022/08/25 07:47:45;;;;;;;9.30;3.40;;;23.60;61.60;;;;;;5094015;28;20048;-62
2022/08/25 07:50:11;;;;;;;6.07;3.38;;;23.60;61.60;;;;;;5093308;28;20044;-64
2022/08/25 07:52:37;;;;;;;7.78;3.50;;;23.60;61.60;;;;;;5093662;28;20114;-62
2022/08/25 07:55:03;;;;;;;7.68;3.72;;;23.70;61.70;;;;;;5093945;28;20519;-62
2022/08/25 07:57:29;;;;;;;7.68;4.07;;;23.70;61.70;;;;;;5093022;28;20075;-63
2022/08/25 07:59:55;;;;;;;7.82;3.85;;;23.70;61.80;;;;;;5093583;28;20040;-63
2022/08/25 08:02:20;;;;;;;7.43;4.15;;;23.70;61.80;;;;;;5093515;28;20059;-59
2022/08/25 08:04:48;;;;;;;6.88;3.58;;;23.80;62.00;;;;;;5091820;28;20479;-60
2022/08/25 08:07:18;;;;;;;4.85;3.30;;;23.80;62.00;;;;;;5092645;28;20040;-59
2022/08/25 08:09:43;;;;;;;5.78;3.33;;;23.80;62.00;;;;;;5091633;28;20373;-60
2022/08/25 08:12:09;;;;;;;5.53;3.35;;;23.90;62.10;;;;;;5093353;28;20507;-59
2022/08/25 08:14:35;;;;;;;7.22;3.50;;;23.90;62.00;;;;;;5090707;28;20040;-60
2022/08/25 08:17:05;;;;;;;6.70;4.50;;;23.90;62.00;;;;;;5092746;28;20040;-59
2022/08/25 08:19:31;;;;;;;6.85;3.60;;;24.00;62.10;;;;;;5093242;28;20044;-60
2022/08/25 08:21:56;;;;;;;8.65;3.63;;;24.00;62.00;;;;;;5093212;28;20048;-59
2022/08/25 08:24:22;;;;;;;6.35;3.42;;;24.00;62.10;;;;;;5092514;28;20114;-59
2022/08/25 08:26:47;;;;;;;5.80;3.42;;;24.00;62.00;;;;;;5126481;27;20553;-60
2022/08/25 08:29:15;;;;;;;10.40;3.65;;;24.10;62.10;;;;;;5093336;28;20047;-60
2022/08/25 08:31:40;;;;;;;7.73;3.70;;;24.10;62.20;;;;;;5092204;28;20056;-60
2022/08/25 08:34:06;;;;;;;5.78;3.35;;;24.10;62.20;;;;;;5093450;28;20056;-60
2022/08/25 08:36:32;;;;;;;4.65;3.20;;;24.10;62.30;;;;;;5092717;28;20047;-60
2022/08/25 08:38:57;;;;;;;6.47;3.53;;;24.20;62.40;;;;;;5091766;28;20089;-60
2022/08/25 08:44:31;;;;;;;5.88;3.17;;;24.30;62.60;;;;;;5091010;28;20052;-60
2022/08/25 08:47:15;;;;;;;5.80;3.53;;;24.30;62.60;;;;;;5092402;28;20047;-59
2022/08/25 08:49:49;;;;;;;5.70;3.30;;;24.20;62.70;;;;;;5091475;28;20438;-60
2022/08/25 08:52:16;;;;;;;7.25;3.83;;;24.30;62.70;;;;;;5090130;28;20483;-60
2022/08/25 08:54:41;;;;;;;5.25;3.28;;;24.30;62.70;;;;;;5092778;28;20411;-60
2022/08/25 08:57:17;;;;;;;7.50;3.08;;;24.30;62.70;;;;;;5074712;28;20484;-60
2022/08/25 08:59:52;;;;;;;7.50;3.13;;;24.30;62.70;;;;;;5074924;28;20074;-60
2022/08/25 09:02:31;;;;;;;6.07;3.22;;;24.30;62.70;;;;;;5057781;28;20055;-59
2022/08/25 09:04:59;;;;;;;5.10;2.53;;;24.40;62.80;;;;;;5091365;28;20048;-60
2022/08/25 09:07:30;;;;;;;5.93;3.38;;;24.40;62.90;;;;;;5090454;28;20049;-60
2022/08/25 09:09:56;;;;;;;5.88;3.70;;;24.40;62.90;;;;;;5091646;28;20075;-60
2022/08/25 09:12:24;;;;;;;4.43;2.78;;;24.40;63.00;;;;;;5091079;28;20094;-60
2022/08/25 09:14:50;;;;;;;5.75;3.25;;;24.40;63.10;;;;;;5107759;28;20071;-60
2022/08/25 09:17:47;;;;;;;4.38;2.90;;;24.40;63.10;;;;;;5090795;28;20072;-60
2022/08/25 09:20:29;;;;;;;5.05;3.40;;;24.50;63.20;;;;;;5089809;28;20152;-60
2022/08/25 09:23:05;;;;;;;6.25;3.20;;;24.50;63.30;;;;;;5072457;28;20044;-59
2022/08/25 09:25:49;;;;;;;10.68;3.97;;;24.50;63.30;;;;;;5054248;28;20044;-59
2022/08/25 09:28:38;;;;;;;9.18;3.75;;;24.50;63.90;;;;;;5082947;28;20051;-59
2022/08/25 09:31:22;;;;;;;8.02;3.20;;;24.50;63.80;;;;;;5092035;28;20043;-59
2022/08/25 09:33:47;;;;;;;6.63;3.10;;;24.60;63.80;;;;;;5091336;28;20048;-61
2022/08/25 09:36:13;;;;;;;7.35;3.25;;;24.60;63.80;;;;;;5091684;28;20135;-60
2022/08/25 09:38:39;;;;;;;8.55;3.30;;;24.50;63.80;;;;;;5091070;28;20126;-59
2022/08/25 09:41:04;;;;;;;10.32;4.15;;;24.60;64.00;;;;;;5091755;28;20036;-60
2022/08/25 09:43:40;;;;;;;7.68;3.20;;;24.60;64.30;;;;;;5092108;28;20506;-60
2022/08/25 09:46:16;;;;;;;5.05;2.85;;;24.60;64.30;;;;;;5090907;28;20044;-60
2022/08/25 09:48:47;;;;;;;8.15;3.55;;;24.60;64.30;;;;;;5090809;28;20089;-60
2022/08/25 09:51:24;;;;;;;8.63;3.72;;;24.60;64.40;;;;;;5091085;28;20532;-60
2022/08/25 09:53:53;;;;;;;10.68;3.53;;;24.60;64.60;;;;;;5092318;28;20040;-62
2022/08/25 09:56:20;;;;;;;7.80;3.22;;;24.70;64.60;;;;;;5091035;28;20044;-62
2022/08/25 09:58:47;;;;;;;7.05;3.15;;;24.60;64.60;;;;;;5095662;28;20051;-60
2022/08/25 10:01:13;;;;;;;7.63;3.47;;;24.70;64.50;;;;;;5095382;28;20097;-62
2022/08/25 10:04:08;;;;;;;8.25;3.30;;;24.70;64.50;;;;;;5095716;28;20080;-65
2022/08/25 10:06:41;;;;;;;7.07;2.95;;;24.70;64.30;;;;;;5077382;28;20380;-61
2022/08/25 10:09:07;;;;;;;8.48;3.08;;;24.80;64.30;;;;;;5078592;28;20466;-61
2022/08/25 10:11:43;;;;;;;9.02;3.08;;;24.80;64.10;;;;;;5128532;27;20068;-61
2022/08/25 10:14:26;;;;;;;7.78;3.35;;;24.90;64.10;;;;;;5094201;28;20040;-61
2022/08/25 10:16:53;;;;;;;7.63;4.07;;;25.00;64.10;;;;;;5093361;28;20118;-61
2022/08/25 10:19:27;;;;;;;8.40;3.65;;;24.90;64.40;;;;;;5077196;28;20051;-58
2022/08/25 10:22:03;;;;;;;9.35;3.60;;;25.00;64.90;;;;;;5095325;28;20046;-59
2022/08/25 10:24:29;;;;;;;8.75;3.30;;;24.90;65.00;;;;;;5092143;28;20044;-60
2022/08/25 10:27:00;;;;;;;6.18;2.83;;;24.90;64.90;;;;;;5095891;28;20123;-59
2022/08/25 10:29:50;;;;;;;5.85;3.50;;;25.00;64.90;;;;;;5094545;28;20044;-59
2022/08/25 10:32:43;;;;;;;11.00;3.95;;;25.00;64.90;;;;;;5094252;28;20063;-59
2022/08/25 10:35:12;;;;;;;8.90;3.45;;;25.00;64.70;;;;;;5095818;28;20117;-59
2022/08/25 10:38:00;;;;;;;6.20;3.63;;;25.00;64.70;;;;;;5076344;28;20483;-59
2022/08/25 10:40:59;;;;;;;5.65;3.92;;;24.90;64.90;;;;;;5079526;28;20116;-58
2022/08/25 10:43:42;;;;;;;6.63;3.63;;;25.00;64.90;;;;;;5071555;28;20060;-59
2022/08/25 10:46:43;;;;;;;9.65;3.72;;;25.00;64.80;;;;;;5094561;28;20470;-59
2022/08/25 10:49:12;;;;;;;6.05;3.58;;;24.90;64.70;;;;;;5080089;28;20051;-59
2022/08/25 10:51:46;;;;;;;9.23;4.75;;;25.00;64.80;;;;;;5094062;28;20867;-61
2022/08/25 10:54:27;;;;;;;7.88;3.47;;;25.00;64.80;;;;;;5095345;28;20055;-61
2022/08/25 10:56:59;;;;;;;6.65;3.72;;;25.00;64.40;;;;;;5095489;28;20174;-61
2022/08/25 10:59:49;;;;;;;7.40;3.78;;;25.00;64.40;;;;;;5094484;28;20048;-60
2022/08/25 11:02:42;;;;;;;8.48;3.88;;;25.10;64.50;;;;;;5093658;28;20048;-61
2022/08/25 11:05:14;;;;;;;9.23;3.50;;;25.00;64.50;;;;;;5095280;28;20048;-61
2022/08/25 11:07:45;;;;;;;8.45;4.15;;;25.00;64.40;;;;;;5092928;28;20036;-61
2022/08/25 11:10:14;;;;;;;8.10;3.50;;;25.00;64.40;;;;;;5077356;28;20044;-61
2022/08/25 11:12:55;;;;;;;6.10;3.70;;;25.00;64.40;;;;;;5093203;28;20111;-61
2022/08/25 11:15:43;;;;;;;8.02;3.60;;;25.10;64.40;;;;;;5077676;28;20036;-61
2022/08/25 11:18:11;;;;;;;9.75;3.60;;;25.10;64.40;;;;;;5093846;28;20093;-61
2022/08/25 11:20:41;;;;;;;5.80;3.50;;;25.10;64.40;;;;;;5092836;28;20036;-62
2022/08/25 11:23:16;;;;;;;8.18;3.88;;;25.10;64.40;;;;;;5075023;28;20055;-61
2022/08/25 11:25:44;;;;;;;5.95;3.90;;;25.00;64.50;;;;;;5096419;27;20052;-61
2022/08/25 11:28:11;;;;;;;7.80;3.60;;;25.10;64.60;;;;;;5093507;28;20561;-60
2022/08/25 11:30:37;;;;;;;5.97;3.47;;;25.10;64.70;;;;;;5092550;28;20039;-60
2022/08/25 11:33:03;;;;;;;5.80;3.60;;;25.10;64.70;;;;;;5093422;28;20052;-60
2022/08/25 11:35:41;;;;;;;7.15;3.40;;;25.10;64.70;;;;;;5091415;28;20040;-60
2022/08/25 11:38:22;;;;;;;5.85;3.65;;;25.10;64.90;;;;;;5077528;28;20051;-61
2022/08/25 11:41:03;;;;;;;7.30;3.88;;;25.10;65.00;;;;;;5093498;28;20049;-60
2022/08/25 11:43:33;;;;;;;6.05;3.60;;;25.10;64.80;;;;;;5076669;28;20050;-62
2022/08/25 11:46:17;;;;;;;5.55;3.30;;;25.10;64.90;;;;;;5092886;28;20050;-61
2022/08/25 11:48:49;;;;;;;8.15;3.72;;;25.10;64.90;;;;;;5091889;28;20048;-60
2022/08/25 11:51:31;;;;;;;6.47;3.35;;;25.10;64.80;;;;;;5092143;28;20039;-60
2022/08/25 11:54:20;;;;;;;4.57;3.35;;;25.20;64.90;;;;;;5093261;28;20048;-61
2022/08/25 11:57:02;;;;;;;6.05;3.80;;;25.20;64.90;;;;;;5092228;28;20089;-62
2022/08/25 11:59:50;;;;;;;5.07;3.38;;;25.20;64.80;;;;;;5092420;28;20074;-62
2022/08/25 12:02:40;;;;;;;6.85;3.40;;;25.20;64.80;;;;;;5093001;28;20036;-61
2022/08/25 12:05:11;;;;;;;5.28;3.42;;;25.20;64.90;;;;;;5093647;28;20388;-60
2022/08/25 12:11:00;;;;;;;6.53;3.30;;;25.20;64.70;;;;;;5093275;28;20044;-61
2022/08/25 12:13:46;;;;;;;4.18;3.20;;;25.20;64.80;;;;;;5093253;28;20377;-61
2022/08/25 12:16:34;;;;;;;5.10;3.13;;;25.20;64.70;;;;;;5091917;28;20039;-61
2022/08/25 12:19:21;;;;;;;6.65;3.97;;;25.20;64.80;;;;;;5092805;28;20036;-61
2022/08/25 12:21:47;;;;;;;4.88;3.50;;;25.20;64.90;;;;;;5093430;28;20567;-60
2022/08/25 12:24:14;;;;;;;6.75;3.28;;;25.10;64.70;;;;;;5074471;28;20123;-61
2022/08/25 12:26:58;;;;;;;6.20;3.90;;;25.20;64.80;;;;;;5093691;28;20040;-62
2022/08/25 12:29:30;;;;;;;6.03;3.33;;;25.10;64.80;;;;;;5092135;28;20044;-61
2022/08/25 12:31:55;;;;;;;4.72;3.60;;;25.10;64.80;;;;;;5092168;28;20071;-61
2022/08/25 12:34:32;;;;;;;8.07;3.70;;;25.10;64.90;;;;;;5091080;28;20385;-60
2022/08/25 12:37:03;;;;;;;7.88;3.55;;;25.10;65.10;;;;;;5092055;28;20490;-60
2022/08/25 12:39:34;;;;;;;4.95;3.47;;;25.20;65.20;;;;;;5092696;28;20051;-60
2022/08/25 12:42:06;;;;;;;5.22;3.30;;;25.10;65.10;;;;;;5091882;28;20043;-60
2022/08/25 12:44:45;;;;;;;6.50;3.75;;;25.10;65.10;;;;;;5073559;28;20039;-60
2022/08/25 12:47:19;;;;;;;4.80;3.30;;;25.10;65.10;;;;;;5092766;28;20032;-60
2022/08/25 12:49:44;;;;;;;4.25;3.00;;;25.10;65.00;;;;;;5092870;28;20063;-60
2022/08/25 12:52:17;;;;;;;5.30;3.17;;;25.10;65.00;;;;;;5092223;28;20476;-61
2022/08/25 12:54:51;;;;;;;5.75;3.10;;;25.10;64.90;;;;;;5075339;28;20076;-61
2022/08/25 12:57:39;;;;;;;5.05;2.72;;;25.10;64.80;;;;;;5092795;28;20185;-61
2022/08/25 13:00:20;;;;;;;7.13;3.10;;;25.10;64.60;;;;;;5091919;28;20399;-61
2022/08/25 13:03:02;;;;;;;4.30;2.72;;;25.10;64.60;;;;;;5092767;28;20469;-61